sensor_id;sensor_type;location;lat;lon;timestamp;P1;durP1;ratioP1;P2;durP2;ratioP2
71769;SDS011;66386;52.122;5.420;2023-11-19T00:01:05;12.77;;;3.20;;
71769;SDS011;66386;52.122;5.420;2023-11-19T00:03:32;8.83;;;3.20;;
71769;SDS011;66386;52.122;5.420;2023-11-19T00:06:00;8.25;;;2.78;;
71769;SDS011;66386;52.122;5.420;2023-11-19T00:08:27;14.82;;;3.35;;
71769;SDS011;66386;52.122;5.420;2023-11-19T00:10:53;10.15;;;2.90;;
71769;SDS011;66386;52.122;5.420;2023-11-19T00:13:20;8.85;;;2.50;;
71769;SDS011;66386;52.122;5.420;2023-11-19T00:15:47;9.17;;;2.50;;
71769;SDS011;66386;52.122;5.420;2023-11-19T00:18:14;15.50;;;3.22;;
71769;SDS011;66386;52.122;5.420;2023-11-19T00:20:40;9.48;;;3.15;;
71769;SDS011;66386;52.122;5.420;2023-11-19T00:23:07;9.40;;;2.72;;
71769;SDS011;66386;52.122;5.420;2023-11-19T00:25:34;12.50;;;2.95;;
71769;SDS011;66386;52.122;5.420;2023-11-19T00:28:00;12.90;;;2.87;;
71769;SDS011;66386;52.122;5.420;2023-11-19T00:30:27;12.02;;;2.30;;
71769;SDS011;66386;52.122;5.420;2023-11-19T00:32:53;12.18;;;2.88;;
71769;SDS011;66386;52.122;5.420;2023-11-19T00:35:20;13.02;;;2.67;;
71769;SDS011;66386;52.122;5.420;2023-11-19T00:37:47;16.42;;;2.67;;
71769;SDS011;66386;52.122;5.420;2023-11-19T00:40:14;19.20;;;2.20;;
71769;SDS011;66386;52.122;5.420;2023-11-19T00:42:42;16.27;;;2.03;;
71769;SDS011;66386;52.122;5.420;2023-11-19T00:45:10;18.80;;;2.63;;
71769;SDS011;66386;52.122;5.420;2023-11-19T00:47:38;19.83;;;2.30;;
71769;SDS011;66386;52.122;5.420;2023-11-19T00:50:06;13.02;;;2.00;;
71769;SDS011;66386;52.122;5.420;2023-11-19T00:52:35;19.63;;;2.30;;
71769;SDS011;66386;52.122;5.420;2023-11-19T00:55:03;11.60;;;2.00;;
71769;SDS011;66386;52.122;5.420;2023-11-19T00:57:31;20.63;;;1.90;;
71769;SDS011;66386;52.122;5.420;2023-11-19T00:59:59;9.98;;;2.05;;
71769;SDS011;66386;52.122;5.420;2023-11-19T01:02:26;14.93;;;2.78;;
71769;SDS011;66386;52.122;5.420;2023-11-19T01:04:52;22.47;;;2.67;;
71769;SDS011;66386;52.122;5.420;2023-11-19T01:07:19;17.20;;;2.00;;
71769;SDS011;66386;52.122;5.420;2023-11-19T01:09:48;16.05;;;2.63;;
71769;SDS011;66386;52.122;5.420;2023-11-19T01:12:14;18.77;;;1.98;;
71769;SDS011;66386;52.122;5.420;2023-11-19T01:14:41;18.02;;;2.28;;
71769;SDS011;66386;52.122;5.420;2023-11-19T01:17:07;14.30;;;2.00;;
71769;SDS011;66386;52.122;5.420;2023-11-19T01:19:35;16.90;;;2.50;;
71769;SDS011;66386;52.122;5.420;2023-11-19T01:22:02;21.20;;;2.63;;
71769;SDS011;66386;52.122;5.420;2023-11-19T01:24:28;24.70;;;3.08;;
71769;SDS011;66386;52.122;5.420;2023-11-19T01:26:57;20.13;;;2.38;;
71769;SDS011;66386;52.122;5.420;2023-11-19T01:29:26;23.57;;;2.03;;
71769;SDS011;66386;52.122;5.420;2023-11-19T01:31:52;23.75;;;2.13;;
71769;SDS011;66386;52.122;5.420;2023-11-19T01:34:19;22.77;;;2.28;;
71769;SDS011;66386;52.122;5.420;2023-11-19T01:36:46;27.30;;;2.13;;
71769;SDS011;66386;52.122;5.420;2023-11-19T01:39:15;21.95;;;2.05;;
71769;SDS011;66386;52.122;5.420;2023-11-19T01:41:46;20.13;;;1.97;;
71769;SDS011;66386;52.122;5.420;2023-11-19T01:44:13;22.83;;;2.70;;
71769;SDS011;66386;52.122;5.420;2023-11-19T01:46:43;31.75;;;3.17;;
71769;SDS011;66386;52.122;5.420;2023-11-19T01:49:11;26.20;;;2.85;;
71769;SDS011;66386;52.122;5.420;2023-11-19T01:51:41;15.55;;;1.83;;
71769;SDS011;66386;52.122;5.420;2023-11-19T01:54:08;17.73;;;2.10;;
71769;SDS011;66386;52.122;5.420;2023-11-19T01:56:36;23.60;;;2.33;;
71769;SDS011;66386;52.122;5.420;2023-11-19T01:59:07;17.70;;;2.55;;
71769;SDS011;66386;52.122;5.420;2023-11-19T02:01:35;24.42;;;2.20;;
71769;SDS011;66386;52.122;5.420;2023-11-19T02:04:06;20.42;;;2.60;;
71769;SDS011;66386;52.122;5.420;2023-11-19T02:06:34;21.43;;;2.00;;
71769;SDS011;66386;52.122;5.420;2023-11-19T02:09:06;19.17;;;2.13;;
71769;SDS011;66386;52.122;5.420;2023-11-19T02:11:34;15.75;;;2.38;;
71769;SDS011;66386;52.122;5.420;2023-11-19T02:14:01;20.48;;;2.90;;
71769;SDS011;66386;52.122;5.420;2023-11-19T02:16:29;16.42;;;2.90;;
71769;SDS011;66386;52.122;5.420;2023-11-19T02:18:56;23.70;;;2.47;;
71769;SDS011;66386;52.122;5.420;2023-11-19T02:21:23;26.67;;;2.33;;
71769;SDS011;66386;52.122;5.420;2023-11-19T02:23:49;22.02;;;2.08;;
71769;SDS011;66386;52.122;5.420;2023-11-19T02:28:43;24.75;;;2.97;;
71769;SDS011;66386;52.122;5.420;2023-11-19T02:31:10;21.30;;;2.70;;
71769;SDS011;66386;52.122;5.420;2023-11-19T02:33:38;23.10;;;3.28;;
71769;SDS011;66386;52.122;5.420;2023-11-19T02:36:05;17.77;;;2.72;;
71769;SDS011;66386;52.122;5.420;2023-11-19T02:38:36;27.80;;;3.22;;
71769;SDS011;66386;52.122;5.420;2023-11-19T02:41:03;19.95;;;2.58;;
71769;SDS011;66386;52.122;5.420;2023-11-19T02:43:34;22.97;;;2.80;;
71769;SDS011;66386;52.122;5.420;2023-11-19T02:46:04;26.17;;;3.30;;
71769;SDS011;66386;52.122;5.420;2023-11-19T02:48:37;33.97;;;3.05;;
71769;SDS011;66386;52.122;5.420;2023-11-19T02:51:04;29.33;;;3.47;;
71769;SDS011;66386;52.122;5.420;2023-11-19T02:53:32;34.67;;;3.05;;
71769;SDS011;66386;52.122;5.420;2023-11-19T02:55:59;26.93;;;3.40;;
71769;SDS011;66386;52.122;5.420;2023-11-19T02:58:32;18.85;;;2.40;;
71769;SDS011;66386;52.122;5.420;2023-11-19T03:00:58;21.40;;;2.00;;
71769;SDS011;66386;52.122;5.420;2023-11-19T03:03:27;26.08;;;2.75;;
71769;SDS011;66386;52.122;5.420;2023-11-19T03:06:05;27.27;;;3.03;;
71769;SDS011;66386;52.122;5.420;2023-11-19T03:08:32;35.67;;;3.77;;
71769;SDS011;66386;52.122;5.420;2023-11-19T03:11:01;28.67;;;3.83;;
71769;SDS011;66386;52.122;5.420;2023-11-19T03:13:28;37.45;;;4.60;;
71769;SDS011;66386;52.122;5.420;2023-11-19T03:15:54;23.85;;;3.22;;
71769;SDS011;66386;52.122;5.420;2023-11-19T03:18:21;30.35;;;2.42;;
71769;SDS011;66386;52.122;5.420;2023-11-19T03:20:48;26.53;;;2.67;;
71769;SDS011;66386;52.122;5.420;2023-11-19T03:23:15;28.08;;;2.55;;
71769;SDS011;66386;52.122;5.420;2023-11-19T03:25:42;27.25;;;2.95;;
71769;SDS011;66386;52.122;5.420;2023-11-19T03:28:09;33.85;;;2.80;;
71769;SDS011;66386;52.122;5.420;2023-11-19T03:30:37;39.53;;;6.47;;
71769;SDS011;66386;52.122;5.420;2023-11-19T03:33:04;31.17;;;2.83;;
71769;SDS011;66386;52.122;5.420;2023-11-19T03:35:31;31.75;;;3.38;;
71769;SDS011;66386;52.122;5.420;2023-11-19T03:37:59;43.17;;;3.65;;
71769;SDS011;66386;52.122;5.420;2023-11-19T03:40:27;29.13;;;2.63;;
71769;SDS011;66386;52.122;5.420;2023-11-19T03:42:57;24.50;;;3.13;;
71769;SDS011;66386;52.122;5.420;2023-11-19T03:45:24;35.60;;;3.67;;
71769;SDS011;66386;52.122;5.420;2023-11-19T03:47:51;30.10;;;2.65;;
71769;SDS011;66386;52.122;5.420;2023-11-19T03:50:18;25.60;;;3.08;;
71769;SDS011;66386;52.122;5.420;2023-11-19T03:52:46;30.20;;;3.38;;
71769;SDS011;66386;52.122;5.420;2023-11-19T03:55:13;40.10;;;4.97;;
71769;SDS011;66386;52.122;5.420;2023-11-19T03:57:40;30.93;;;3.40;;
71769;SDS011;66386;52.122;5.420;2023-11-19T04:00:07;33.47;;;3.45;;
71769;SDS011;66386;52.122;5.420;2023-11-19T04:02:37;38.90;;;4.20;;
71769;SDS011;66386;52.122;5.420;2023-11-19T04:05:03;26.38;;;3.42;;
71769;SDS011;66386;52.122;5.420;2023-11-19T04:07:31;30.70;;;2.65;;
71769;SDS011;66386;52.122;5.420;2023-11-19T04:09:58;33.00;;;4.00;;
71769;SDS011;66386;52.122;5.420;2023-11-19T04:12:25;28.33;;;3.10;;
71769;SDS011;66386;52.122;5.420;2023-11-19T04:14:52;31.23;;;4.22;;
71769;SDS011;66386;52.122;5.420;2023-11-19T04:17:21;30.48;;;3.03;;
71769;SDS011;66386;52.122;5.420;2023-11-19T04:19:49;24.17;;;3.45;;
71769;SDS011;66386;52.122;5.420;2023-11-19T04:22:16;26.77;;;3.33;;
71769;SDS011;66386;52.122;5.420;2023-11-19T04:24:42;38.25;;;3.63;;
71769;SDS011;66386;52.122;5.420;2023-11-19T04:27:12;35.08;;;3.55;;
71769;SDS011;66386;52.122;5.420;2023-11-19T04:29:39;35.00;;;2.60;;
71769;SDS011;66386;52.122;5.420;2023-11-19T04:32:06;33.70;;;3.88;;
71769;SDS011;66386;52.122;5.420;2023-11-19T04:34:33;36.50;;;3.80;;
71769;SDS011;66386;52.122;5.420;2023-11-19T04:36:59;34.05;;;3.17;;
71769;SDS011;66386;52.122;5.420;2023-11-19T04:39:32;31.00;;;3.00;;
71769;SDS011;66386;52.122;5.420;2023-11-19T04:41:58;31.05;;;3.38;;
71769;SDS011;66386;52.122;5.420;2023-11-19T04:44:25;30.33;;;3.08;;
71769;SDS011;66386;52.122;5.420;2023-11-19T04:46:52;35.50;;;3.57;;
71769;SDS011;66386;52.122;5.420;2023-11-19T04:49:18;34.38;;;4.20;;
71769;SDS011;66386;52.122;5.420;2023-11-19T04:51:45;33.97;;;3.08;;
71769;SDS011;66386;52.122;5.420;2023-11-19T04:54:14;30.08;;;2.45;;
71769;SDS011;66386;52.122;5.420;2023-11-19T04:56:44;27.83;;;2.88;;
71769;SDS011;66386;52.122;5.420;2023-11-19T04:59:12;24.07;;;2.70;;
71769;SDS011;66386;52.122;5.420;2023-11-19T05:01:39;26.35;;;2.80;;
71769;SDS011;66386;52.122;5.420;2023-11-19T05:04:06;25.65;;;3.13;;
71769;SDS011;66386;52.122;5.420;2023-11-19T05:06:34;27.77;;;3.83;;
71769;SDS011;66386;52.122;5.420;2023-11-19T05:09:01;25.55;;;2.55;;
71769;SDS011;66386;52.122;5.420;2023-11-19T05:11:32;35.27;;;2.80;;
71769;SDS011;66386;52.122;5.420;2023-11-19T05:14:01;20.13;;;2.78;;
71769;SDS011;66386;52.122;5.420;2023-11-19T05:16:30;39.00;;;4.22;;
71769;SDS011;66386;52.122;5.420;2023-11-19T05:18:58;36.53;;;3.78;;
71769;SDS011;66386;52.122;5.420;2023-11-19T05:21:24;30.98;;;3.38;;
71769;SDS011;66386;52.122;5.420;2023-11-19T05:23:51;27.47;;;2.80;;
71769;SDS011;66386;52.122;5.420;2023-11-19T05:26:21;31.45;;;3.95;;
71769;SDS011;66386;52.122;5.420;2023-11-19T05:28:49;31.85;;;4.30;;
71769;SDS011;66386;52.122;5.420;2023-11-19T05:31:16;23.30;;;3.17;;
71769;SDS011;66386;52.122;5.420;2023-11-19T05:33:44;23.38;;;2.13;;
71769;SDS011;66386;52.122;5.420;2023-11-19T05:36:11;23.87;;;2.33;;
71769;SDS011;66386;52.122;5.420;2023-11-19T05:38:41;32.95;;;3.13;;
71769;SDS011;66386;52.122;5.420;2023-11-19T05:41:07;35.00;;;3.03;;
71769;SDS011;66386;52.122;5.420;2023-11-19T05:43:34;41.40;;;3.35;;
71769;SDS011;66386;52.122;5.420;2023-11-19T05:46:00;41.28;;;4.13;;
71769;SDS011;66386;52.122;5.420;2023-11-19T05:48:43;29.87;;;2.97;;
71769;SDS011;66386;52.122;5.420;2023-11-19T05:51:11;25.30;;;2.65;;
71769;SDS011;66386;52.122;5.420;2023-11-19T05:53:38;41.95;;;3.10;;
71769;SDS011;66386;52.122;5.420;2023-11-19T05:56:04;27.02;;;3.05;;
71769;SDS011;66386;52.122;5.420;2023-11-19T05:58:33;28.77;;;3.88;;
71769;SDS011;66386;52.122;5.420;2023-11-19T06:01:00;27.73;;;2.97;;
71769;SDS011;66386;52.122;5.420;2023-11-19T06:03:27;47.65;;;4.30;;
71769;SDS011;66386;52.122;5.420;2023-11-19T06:05:54;32.60;;;3.47;;
71769;SDS011;66386;52.122;5.420;2023-11-19T06:08:20;35.38;;;3.15;;
71769;SDS011;66386;52.122;5.420;2023-11-19T06:10:47;30.02;;;2.85;;
71769;SDS011;66386;52.122;5.420;2023-11-19T06:13:16;35.97;;;3.40;;
71769;SDS011;66386;52.122;5.420;2023-11-19T06:15:43;30.15;;;2.58;;
71769;SDS011;66386;52.122;5.420;2023-11-19T06:18:09;48.67;;;5.03;;
71769;SDS011;66386;52.122;5.420;2023-11-19T06:20:38;38.38;;;4.18;;
71769;SDS011;66386;52.122;5.420;2023-11-19T06:23:08;18.95;;;2.20;;
71769;SDS011;66386;52.122;5.420;2023-11-19T06:25:34;31.37;;;3.83;;
71769;SDS011;66386;52.122;5.420;2023-11-19T06:28:02;26.42;;;2.90;;
71769;SDS011;66386;52.122;5.420;2023-11-19T06:30:29;28.55;;;3.20;;
71769;SDS011;66386;52.122;5.420;2023-11-19T06:32:58;31.10;;;3.13;;
71769;SDS011;66386;52.122;5.420;2023-11-19T06:35:26;24.63;;;2.72;;
71769;SDS011;66386;52.122;5.420;2023-11-19T06:37:53;32.60;;;3.20;;
71769;SDS011;66386;52.122;5.420;2023-11-19T06:40:19;42.13;;;4.38;;
71769;SDS011;66386;52.122;5.420;2023-11-19T06:42:46;24.45;;;3.20;;
71769;SDS011;66386;52.122;5.420;2023-11-19T06:45:13;31.70;;;3.40;;
71769;SDS011;66386;52.122;5.420;2023-11-19T06:47:39;28.35;;;3.47;;
71769;SDS011;66386;52.122;5.420;2023-11-19T06:50:06;32.63;;;2.77;;
71769;SDS011;66386;52.122;5.420;2023-11-19T06:52:33;29.25;;;3.08;;
71769;SDS011;66386;52.122;5.420;2023-11-19T06:55:00;27.67;;;3.10;;
71769;SDS011;66386;52.122;5.420;2023-11-19T06:57:29;21.65;;;2.33;;
71769;SDS011;66386;52.122;5.420;2023-11-19T06:59:58;36.30;;;3.63;;
71769;SDS011;66386;52.122;5.420;2023-11-19T07:02:25;24.57;;;3.23;;
71769;SDS011;66386;52.122;5.420;2023-11-19T07:04:53;26.67;;;3.15;;
71769;SDS011;66386;52.122;5.420;2023-11-19T07:07:20;35.20;;;4.25;;
71769;SDS011;66386;52.122;5.420;2023-11-19T07:09:47;34.83;;;3.15;;
71769;SDS011;66386;52.122;5.420;2023-11-19T07:12:14;26.73;;;2.90;;
71769;SDS011;66386;52.122;5.420;2023-11-19T07:14:40;24.13;;;2.57;;
71769;SDS011;66386;52.122;5.420;2023-11-19T07:17:08;36.15;;;3.17;;
71769;SDS011;66386;52.122;5.420;2023-11-19T07:19:37;23.90;;;2.80;;
71769;SDS011;66386;52.122;5.420;2023-11-19T07:22:05;28.42;;;4.20;;
71769;SDS011;66386;52.122;5.420;2023-11-19T07:24:33;37.25;;;4.00;;
71769;SDS011;66386;52.122;5.420;2023-11-19T07:26:59;32.47;;;3.53;;
71769;SDS011;66386;52.122;5.420;2023-11-19T07:29:27;22.00;;;2.80;;
71769;SDS011;66386;52.122;5.420;2023-11-19T07:31:55;34.55;;;4.00;;
71769;SDS011;66386;52.122;5.420;2023-11-19T07:34:22;26.00;;;2.83;;
71769;SDS011;66386;52.122;5.420;2023-11-19T07:36:49;22.30;;;2.60;;
71769;SDS011;66386;52.122;5.420;2023-11-19T07:39:16;30.70;;;3.80;;
71769;SDS011;66386;52.122;5.420;2023-11-19T07:41:42;27.17;;;2.97;;
71769;SDS011;66386;52.122;5.420;2023-11-19T07:44:09;27.73;;;3.25;;
71769;SDS011;66386;52.122;5.420;2023-11-19T07:46:35;35.90;;;4.88;;
71769;SDS011;66386;52.122;5.420;2023-11-19T07:49:02;19.90;;;2.28;;
71769;SDS011;66386;52.122;5.420;2023-11-19T07:51:29;38.87;;;4.80;;
71769;SDS011;66386;52.122;5.420;2023-11-19T07:53:55;36.35;;;4.00;;
71769;SDS011;66386;52.122;5.420;2023-11-19T07:56:22;39.00;;;3.83;;
71769;SDS011;66386;52.122;5.420;2023-11-19T07:58:48;40.55;;;4.43;;
71769;SDS011;66386;52.122;5.420;2023-11-19T08:01:15;30.05;;;4.10;;
71769;SDS011;66386;52.122;5.420;2023-11-19T08:03:42;30.57;;;3.50;;
71769;SDS011;66386;52.122;5.420;2023-11-19T08:06:24;29.13;;;3.30;;
71769;SDS011;66386;52.122;5.420;2023-11-19T08:08:51;33.20;;;3.67;;
71769;SDS011;66386;52.122;5.420;2023-11-19T08:11:18;27.75;;;3.92;;
71769;SDS011;66386;52.122;5.420;2023-11-19T08:13:46;38.67;;;4.13;;
71769;SDS011;66386;52.122;5.420;2023-11-19T08:16:12;32.03;;;3.50;;
71769;SDS011;66386;52.122;5.420;2023-11-19T08:18:44;23.20;;;2.33;;
71769;SDS011;66386;52.122;5.420;2023-11-19T08:21:10;31.13;;;3.60;;
71769;SDS011;66386;52.122;5.420;2023-11-19T08:23:37;22.20;;;2.53;;
71769;SDS011;66386;52.122;5.420;2023-11-19T08:26:04;34.08;;;2.90;;
71769;SDS011;66386;52.122;5.420;2023-11-19T08:28:31;29.13;;;3.60;;
71769;SDS011;66386;52.122;5.420;2023-11-19T08:31:00;22.92;;;2.40;;
71769;SDS011;66386;52.122;5.420;2023-11-19T08:33:27;20.90;;;2.78;;
71769;SDS011;66386;52.122;5.420;2023-11-19T08:35:53;29.48;;;3.30;;
71769;SDS011;66386;52.122;5.420;2023-11-19T08:38:20;28.88;;;3.75;;
71769;SDS011;66386;52.122;5.420;2023-11-19T08:40:50;30.87;;;3.80;;
71769;SDS011;66386;52.122;5.420;2023-11-19T08:43:18;28.27;;;3.50;;
71769;SDS011;66386;52.122;5.420;2023-11-19T08:45:44;23.55;;;2.92;;
71769;SDS011;66386;52.122;5.420;2023-11-19T08:48:11;34.10;;;3.40;;
71769;SDS011;66386;52.122;5.420;2023-11-19T08:50:38;29.55;;;3.58;;
71769;SDS011;66386;52.122;5.420;2023-11-19T08:53:04;28.47;;;3.50;;
71769;SDS011;66386;52.122;5.420;2023-11-19T08:55:33;26.17;;;2.95;;
71769;SDS011;66386;52.122;5.420;2023-11-19T08:58:00;25.42;;;3.88;;
71769;SDS011;66386;52.122;5.420;2023-11-19T09:00:27;22.13;;;2.40;;
71769;SDS011;66386;52.122;5.420;2023-11-19T09:02:53;25.55;;;2.65;;
71769;SDS011;66386;52.122;5.420;2023-11-19T09:05:20;27.33;;;2.60;;
71769;SDS011;66386;52.122;5.420;2023-11-19T09:07:46;27.40;;;3.42;;
71769;SDS011;66386;52.122;5.420;2023-11-19T09:10:14;32.45;;;4.05;;
71769;SDS011;66386;52.122;5.420;2023-11-19T09:12:40;32.08;;;5.00;;
71769;SDS011;66386;52.122;5.420;2023-11-19T09:15:07;24.67;;;3.45;;
71769;SDS011;66386;52.122;5.420;2023-11-19T09:17:36;26.20;;;2.93;;
71769;SDS011;66386;52.122;5.420;2023-11-19T09:20:03;32.22;;;2.80;;
71769;SDS011;66386;52.122;5.420;2023-11-19T09:22:30;24.75;;;3.03;;
71769;SDS011;66386;52.122;5.420;2023-11-19T09:24:56;25.58;;;2.83;;
71769;SDS011;66386;52.122;5.420;2023-11-19T09:27:25;29.48;;;3.22;;
71769;SDS011;66386;52.122;5.420;2023-11-19T09:29:52;27.83;;;3.87;;
71769;SDS011;66386;52.122;5.420;2023-11-19T09:32:24;26.13;;;2.47;;
71769;SDS011;66386;52.122;5.420;2023-11-19T09:34:51;23.60;;;2.13;;
71769;SDS011;66386;52.122;5.420;2023-11-19T09:37:18;27.88;;;2.80;;
71769;SDS011;66386;52.122;5.420;2023-11-19T09:39:47;24.92;;;3.55;;
71769;SDS011;66386;52.122;5.420;2023-11-19T09:42:14;26.30;;;3.13;;
71769;SDS011;66386;52.122;5.420;2023-11-19T09:44:41;24.55;;;3.33;;
71769;SDS011;66386;52.122;5.420;2023-11-19T09:47:10;24.50;;;2.53;;
71769;SDS011;66386;52.122;5.420;2023-11-19T09:49:38;17.63;;;2.38;;
71769;SDS011;66386;52.122;5.420;2023-11-19T09:52:05;26.30;;;2.95;;
71769;SDS011;66386;52.122;5.420;2023-11-19T09:54:31;25.80;;;2.90;;
71769;SDS011;66386;52.122;5.420;2023-11-19T09:56:58;24.65;;;2.22;;
71769;SDS011;66386;52.122;5.420;2023-11-19T09:59:30;31.08;;;3.30;;
71769;SDS011;66386;52.122;5.420;2023-11-19T10:01:58;26.35;;;3.55;;
71769;SDS011;66386;52.122;5.420;2023-11-19T10:04:26;28.23;;;3.28;;
71769;SDS011;66386;52.122;5.420;2023-11-19T10:06:56;27.27;;;4.00;;
71769;SDS011;66386;52.122;5.420;2023-11-19T10:09:23;29.17;;;2.60;;
71769;SDS011;66386;52.122;5.420;2023-11-19T10:11:49;23.75;;;3.88;;
71769;SDS011;66386;52.122;5.420;2023-11-19T10:14:16;21.98;;;2.53;;
71769;SDS011;66386;52.122;5.420;2023-11-19T10:16:45;19.13;;;2.15;;
71769;SDS011;66386;52.122;5.420;2023-11-19T10:19:18;31.10;;;3.03;;
71769;SDS011;66386;52.122;5.420;2023-11-19T10:21:46;25.33;;;4.05;;
71769;SDS011;66386;52.122;5.420;2023-11-19T10:24:13;26.52;;;2.88;;
71769;SDS011;66386;52.122;5.420;2023-11-19T10:26:56;23.58;;;3.08;;
71769;SDS011;66386;52.122;5.420;2023-11-19T10:29:23;26.85;;;3.20;;
71769;SDS011;66386;52.122;5.420;2023-11-19T10:31:56;19.83;;;2.47;;
71769;SDS011;66386;52.122;5.420;2023-11-19T10:34:44;24.08;;;3.03;;
71769;SDS011;66386;52.122;5.420;2023-11-19T10:37:27;22.13;;;2.85;;
71769;SDS011;66386;52.122;5.420;2023-11-19T10:39:56;22.50;;;2.55;;
71769;SDS011;66386;52.122;5.420;2023-11-19T10:42:22;20.13;;;1.98;;
71769;SDS011;66386;52.122;5.420;2023-11-19T10:44:49;28.10;;;2.73;;
71769;SDS011;66386;52.122;5.420;2023-11-19T10:47:16;21.60;;;2.88;;
71769;SDS011;66386;52.122;5.420;2023-11-19T10:49:45;23.88;;;2.63;;
71769;SDS011;66386;52.122;5.420;2023-11-19T10:52:12;24.00;;;3.55;;
71769;SDS011;66386;52.122;5.420;2023-11-19T10:54:44;18.88;;;2.63;;
71769;SDS011;66386;52.122;5.420;2023-11-19T10:57:20;22.63;;;2.53;;
71769;SDS011;66386;52.122;5.420;2023-11-19T10:59:48;18.40;;;2.83;;
71769;SDS011;66386;52.122;5.420;2023-11-19T11:02:17;23.25;;;3.25;;
71769;SDS011;66386;52.122;5.420;2023-11-19T11:04:45;20.58;;;2.22;;
71769;SDS011;66386;52.122;5.420;2023-11-19T11:07:14;22.52;;;3.00;;
71769;SDS011;66386;52.122;5.420;2023-11-19T11:09:42;22.60;;;2.70;;
71769;SDS011;66386;52.122;5.420;2023-11-19T11:12:09;22.27;;;2.75;;
71769;SDS011;66386;52.122;5.420;2023-11-19T11:14:37;22.35;;;2.90;;
71769;SDS011;66386;52.122;5.420;2023-11-19T11:17:04;16.33;;;2.25;;
71769;SDS011;66386;52.122;5.420;2023-11-19T11:19:34;20.45;;;2.65;;
71769;SDS011;66386;52.122;5.420;2023-11-19T11:22:02;16.73;;;2.00;;
71769;SDS011;66386;52.122;5.420;2023-11-19T11:27:57;21.02;;;2.63;;
71769;SDS011;66386;52.122;5.420;2023-11-19T11:38:08;28.65;;;3.15;;
71769;SDS011;66386;52.122;5.420;2023-11-19T11:40:35;23.25;;;2.53;;
71769;SDS011;66386;52.122;5.420;2023-11-19T11:43:04;24.15;;;2.83;;
71769;SDS011;66386;52.122;5.420;2023-11-19T11:46:09;15.65;;;2.47;;
71769;SDS011;66386;52.122;5.420;2023-11-19T11:49:05;24.63;;;2.80;;
71769;SDS011;66386;52.122;5.420;2023-11-19T11:57:00;23.55;;;2.58;;
71769;SDS011;66386;52.122;5.420;2023-11-19T11:59:36;22.90;;;2.88;;
71769;SDS011;66386;52.122;5.420;2023-11-19T12:02:09;19.73;;;2.60;;
71769;SDS011;66386;52.122;5.420;2023-11-19T12:04:38;14.07;;;2.28;;
71769;SDS011;66386;52.122;5.420;2023-11-19T12:07:13;16.05;;;2.60;;
71769;SDS011;66386;52.122;5.420;2023-11-19T12:09:48;19.45;;;2.47;;
71769;SDS011;66386;52.122;5.420;2023-11-19T12:20:00;24.88;;;2.17;;
71769;SDS011;66386;52.122;5.420;2023-11-19T12:22:28;20.98;;;3.00;;
71769;SDS011;66386;52.122;5.420;2023-11-19T12:24:54;17.75;;;2.05;;
71769;SDS011;66386;52.122;5.420;2023-11-19T12:27:21;18.00;;;2.80;;
71769;SDS011;66386;52.122;5.420;2023-11-19T12:29:50;16.98;;;1.98;;
71769;SDS011;66386;52.122;5.420;2023-11-19T12:32:17;17.30;;;1.88;;
71769;SDS011;66386;52.122;5.420;2023-11-19T12:34:44;16.88;;;1.77;;
71769;SDS011;66386;52.122;5.420;2023-11-19T12:37:11;17.48;;;2.05;;
71769;SDS011;66386;52.122;5.420;2023-11-19T12:39:38;18.77;;;2.23;;
71769;SDS011;66386;52.122;5.420;2023-11-19T12:42:05;15.23;;;2.05;;
71769;SDS011;66386;52.122;5.420;2023-11-19T12:44:31;13.40;;;1.48;;
71769;SDS011;66386;52.122;5.420;2023-11-19T12:47:06;19.50;;;1.58;;
71769;SDS011;66386;52.122;5.420;2023-11-19T12:49:33;15.68;;;1.65;;
71769;SDS011;66386;52.122;5.420;2023-11-19T12:52:00;15.97;;;1.73;;
71769;SDS011;66386;52.122;5.420;2023-11-19T12:54:33;21.38;;;2.28;;
71769;SDS011;66386;52.122;5.420;2023-11-19T12:57:04;24.48;;;2.28;;
71769;SDS011;66386;52.122;5.420;2023-11-19T12:59:31;22.80;;;2.33;;
71769;SDS011;66386;52.122;5.420;2023-11-19T13:01:58;21.20;;;3.15;;
71769;SDS011;66386;52.122;5.420;2023-11-19T13:04:28;23.73;;;2.30;;
71769;SDS011;66386;52.122;5.420;2023-11-19T13:06:57;23.17;;;1.65;;
71769;SDS011;66386;52.122;5.420;2023-11-19T13:09:27;22.17;;;2.22;;
71769;SDS011;66386;52.122;5.420;2023-11-19T13:11:55;19.60;;;1.75;;
71769;SDS011;66386;52.122;5.420;2023-11-19T13:14:22;24.05;;;2.45;;
71769;SDS011;66386;52.122;5.420;2023-11-19T13:16:49;19.67;;;2.80;;
71769;SDS011;66386;52.122;5.420;2023-11-19T13:19:16;19.92;;;2.72;;
71769;SDS011;66386;52.122;5.420;2023-11-19T13:21:45;22.75;;;2.88;;
71769;SDS011;66386;52.122;5.420;2023-11-19T13:24:13;21.85;;;2.58;;
71769;SDS011;66386;52.122;5.420;2023-11-19T13:26:40;20.20;;;2.97;;
71769;SDS011;66386;52.122;5.420;2023-11-19T13:29:06;15.37;;;1.93;;
71769;SDS011;66386;52.122;5.420;2023-11-19T13:31:33;17.45;;;2.30;;
71769;SDS011;66386;52.122;5.420;2023-11-19T13:33:59;16.73;;;2.13;;
71769;SDS011;66386;52.122;5.420;2023-11-19T13:36:26;19.17;;;2.22;;
71769;SDS011;66386;52.122;5.420;2023-11-19T13:38:53;19.95;;;2.25;;
71769;SDS011;66386;52.122;5.420;2023-11-19T13:41:28;25.17;;;2.53;;
71769;SDS011;66386;52.122;5.420;2023-11-19T13:43:54;23.48;;;2.63;;
71769;SDS011;66386;52.122;5.420;2023-11-19T13:46:21;20.55;;;2.17;;
71769;SDS011;66386;52.122;5.420;2023-11-19T13:48:48;23.40;;;2.63;;
71769;SDS011;66386;52.122;5.420;2023-11-19T13:51:16;24.77;;;3.33;;
71769;SDS011;66386;52.122;5.420;2023-11-19T13:53:42;22.10;;;3.47;;
71769;SDS011;66386;52.122;5.420;2023-11-19T13:56:12;16.83;;;2.63;;
71769;SDS011;66386;52.122;5.420;2023-11-19T13:58:39;20.27;;;2.03;;
71769;SDS011;66386;52.122;5.420;2023-11-19T14:01:06;18.48;;;2.05;;
71769;SDS011;66386;52.122;5.420;2023-11-19T14:03:33;20.70;;;3.03;;
71769;SDS011;66386;52.122;5.420;2023-11-19T14:06:00;19.67;;;2.27;;
71769;SDS011;66386;52.122;5.420;2023-11-19T14:08:27;16.40;;;1.90;;
71769;SDS011;66386;52.122;5.420;2023-11-19T14:10:54;17.40;;;2.08;;
71769;SDS011;66386;52.122;5.420;2023-11-19T14:13:23;18.05;;;1.58;;
71769;SDS011;66386;52.122;5.420;2023-11-19T14:15:50;16.75;;;1.95;;
71769;SDS011;66386;52.122;5.420;2023-11-19T14:18:17;18.50;;;2.03;;
71769;SDS011;66386;52.122;5.420;2023-11-19T14:20:44;16.75;;;1.80;;
71769;SDS011;66386;52.122;5.420;2023-11-19T14:23:10;18.92;;;1.90;;
71769;SDS011;66386;52.122;5.420;2023-11-19T14:25:37;19.27;;;2.20;;
71769;SDS011;66386;52.122;5.420;2023-11-19T14:28:03;17.92;;;1.75;;
71769;SDS011;66386;52.122;5.420;2023-11-19T14:30:32;17.37;;;1.90;;
71769;SDS011;66386;52.122;5.420;2023-11-19T14:33:00;23.05;;;1.77;;
71769;SDS011;66386;52.122;5.420;2023-11-19T14:35:26;20.38;;;1.65;;
71769;SDS011;66386;52.122;5.420;2023-11-19T14:37:53;18.35;;;2.65;;
71769;SDS011;66386;52.122;5.420;2023-11-19T14:40:19;19.70;;;2.05;;
71769;SDS011;66386;52.122;5.420;2023-11-19T14:42:46;25.53;;;2.33;;
71769;SDS011;66386;52.122;5.420;2023-11-19T14:45:12;22.92;;;2.15;;
71769;SDS011;66386;52.122;5.420;2023-11-19T14:47:39;18.95;;;2.75;;
71769;SDS011;66386;52.122;5.420;2023-11-19T14:50:06;17.23;;;1.70;;
71769;SDS011;66386;52.122;5.420;2023-11-19T14:52:34;19.95;;;2.13;;
71769;SDS011;66386;52.122;5.420;2023-11-19T14:55:01;16.43;;;2.30;;
71769;SDS011;66386;52.122;5.420;2023-11-19T14:57:28;24.73;;;2.60;;
71769;SDS011;66386;52.122;5.420;2023-11-19T14:59:55;18.20;;;2.17;;
71769;SDS011;66386;52.122;5.420;2023-11-19T15:02:22;21.08;;;2.47;;
71769;SDS011;66386;52.122;5.420;2023-11-19T15:04:48;21.15;;;2.63;;
71769;SDS011;66386;52.122;5.420;2023-11-19T15:07:15;19.60;;;2.67;;